sensor_id;sensor_type;location;lat;lon;timestamp;P1;durP1;ratioP1;P2;durP2;ratioP2
41829;SDS011;38614;43.472;23.936;2022-07-06T00:01:51;11.02;;;4.07;;
41829;SDS011;38614;43.472;23.936;2022-07-06T00:04:39;5.22;;;4.10;;
41829;SDS011;38614;43.472;23.936;2022-07-06T00:07:26;5.55;;;3.53;;
41829;SDS011;38614;43.472;23.936;2022-07-06T00:10:14;4.03;;;3.63;;
41829;SDS011;38614;43.472;23.936;2022-07-06T00:13:02;5.22;;;4.53;;
41829;SDS011;38614;43.472;23.936;2022-07-06T00:15:49;6.22;;;3.88;;
41829;SDS011;38614;43.472;23.936;2022-07-06T00:18:37;6.85;;;4.43;;
41829;SDS011;38614;43.472;23.936;2022-07-06T00:21:25;4.55;;;3.25;;
41829;SDS011;38614;43.472;23.936;2022-07-06T00:24:12;5.78;;;3.90;;
41829;SDS011;38614;43.472;23.936;2022-07-06T00:27:00;9.13;;;5.63;;
41829;SDS011;38614;43.472;23.936;2022-07-06T00:29:48;6.30;;;4.85;;
41829;SDS011;38614;43.472;23.936;2022-07-06T00:32:35;8.50;;;4.28;;
41829;SDS011;38614;43.472;23.936;2022-07-06T00:35:23;6.25;;;4.47;;
41829;SDS011;38614;43.472;23.936;2022-07-06T00:38:11;4.72;;;4.28;;
41829;SDS011;38614;43.472;23.936;2022-07-06T00:40:59;5.68;;;4.60;;
41829;SDS011;38614;43.472;23.936;2022-07-06T00:46:38;5.95;;;4.30;;
41829;SDS011;38614;43.472;23.936;2022-07-06T00:49:26;9.98;;;4.57;;
41829;SDS011;38614;43.472;23.936;2022-07-06T00:52:32;5.72;;;3.67;;
41829;SDS011;38614;43.472;23.936;2022-07-06T00:55:25;5.88;;;4.40;;
41829;SDS011;38614;43.472;23.936;2022-07-06T00:58:14;6.63;;;4.15;;
41829;SDS011;38614;43.472;23.936;2022-07-06T01:01:02;12.40;;;4.75;;
41829;SDS011;38614;43.472;23.936;2022-07-06T01:03:50;10.57;;;5.60;;
41829;SDS011;38614;43.472;23.936;2022-07-06T01:06:38;17.73;;;4.63;;
41829;SDS011;38614;43.472;23.936;2022-07-06T01:09:26;12.35;;;3.58;;
41829;SDS011;38614;43.472;23.936;2022-07-06T01:12:15;6.32;;;3.92;;
41829;SDS011;38614;43.472;23.936;2022-07-06T01:15:04;3.83;;;3.50;;
41829;SDS011;38614;43.472;23.936;2022-07-06T01:17:56;9.32;;;3.65;;
41829;SDS011;38614;43.472;23.936;2022-07-06T01:20:49;6.55;;;4.13;;
41829;SDS011;38614;43.472;23.936;2022-07-06T01:23:44;4.38;;;3.97;;
41829;SDS011;38614;43.472;23.936;2022-07-06T01:26:33;8.63;;;4.63;;
41829;SDS011;38614;43.472;23.936;2022-07-06T01:29:21;5.82;;;3.70;;
41829;SDS011;38614;43.472;23.936;2022-07-06T01:32:09;4.53;;;3.65;;
41829;SDS011;38614;43.472;23.936;2022-07-06T01:34:56;9.50;;;4.47;;
41829;SDS011;38614;43.472;23.936;2022-07-06T01:37:44;7.68;;;4.72;;
41829;SDS011;38614;43.472;23.936;2022-07-06T01:40:33;8.65;;;4.30;;
41829;SDS011;38614;43.472;23.936;2022-07-06T01:43:21;6.75;;;4.53;;
41829;SDS011;38614;43.472;23.936;2022-07-06T01:46:09;7.05;;;5.22;;
41829;SDS011;38614;43.472;23.936;2022-07-06T01:48:56;5.88;;;4.28;;
41829;SDS011;38614;43.472;23.936;2022-07-06T01:51:45;5.47;;;4.65;;
41829;SDS011;38614;43.472;23.936;2022-07-06T01:54:33;6.10;;;4.10;;
41829;SDS011;38614;43.472;23.936;2022-07-06T01:57:21;10.93;;;5.30;;
41829;SDS011;38614;43.472;23.936;2022-07-06T02:00:09;10.27;;;4.25;;
41829;SDS011;38614;43.472;23.936;2022-07-06T02:03:01;6.30;;;4.20;;
41829;SDS011;38614;43.472;23.936;2022-07-06T02:05:48;10.32;;;4.65;;
41829;SDS011;38614;43.472;23.936;2022-07-06T02:08:36;4.95;;;4.43;;
41829;SDS011;38614;43.472;23.936;2022-07-06T02:11:24;7.07;;;4.53;;
41829;SDS011;38614;43.472;23.936;2022-07-06T02:14:12;6.47;;;4.93;;
41829;SDS011;38614;43.472;23.936;2022-07-06T02:17:00;10.85;;;5.13;;
41829;SDS011;38614;43.472;23.936;2022-07-06T02:19:48;6.93;;;4.57;;
41829;SDS011;38614;43.472;23.936;2022-07-06T02:22:36;12.57;;;5.57;;
41829;SDS011;38614;43.472;23.936;2022-07-06T02:25:24;11.10;;;5.22;;
41829;SDS011;38614;43.472;23.936;2022-07-06T02:28:12;10.05;;;5.15;;
41829;SDS011;38614;43.472;23.936;2022-07-06T02:31:00;7.63;;;3.65;;
41829;SDS011;38614;43.472;23.936;2022-07-06T02:33:49;7.78;;;4.95;;
41829;SDS011;38614;43.472;23.936;2022-07-06T02:36:37;5.13;;;4.65;;
41829;SDS011;38614;43.472;23.936;2022-07-06T02:39:25;9.95;;;4.55;;
41829;SDS011;38614;43.472;23.936;2022-07-06T02:42:13;15.00;;;5.85;;
41829;SDS011;38614;43.472;23.936;2022-07-06T02:45:01;5.63;;;5.03;;
41829;SDS011;38614;43.472;23.936;2022-07-06T02:47:49;7.72;;;5.65;;
41829;SDS011;38614;43.472;23.936;2022-07-06T02:50:38;10.25;;;5.88;;
41829;SDS011;38614;43.472;23.936;2022-07-06T02:53:26;8.23;;;6.10;;
41829;SDS011;38614;43.472;23.936;2022-07-06T02:56:15;6.97;;;5.93;;
41829;SDS011;38614;43.472;23.936;2022-07-06T02:59:03;8.02;;;5.80;;
41829;SDS011;38614;43.472;23.936;2022-07-06T03:01:53;10.98;;;5.72;;
41829;SDS011;38614;43.472;23.936;2022-07-06T03:04:41;12.98;;;6.75;;
41829;SDS011;38614;43.472;23.936;2022-07-06T03:07:29;8.80;;;5.82;;
41829;SDS011;38614;43.472;23.936;2022-07-06T03:10:18;10.10;;;6.10;;
41829;SDS011;38614;43.472;23.936;2022-07-06T03:13:05;6.53;;;5.72;;
41829;SDS011;38614;43.472;23.936;2022-07-06T03:15:54;5.95;;;5.38;;
41829;SDS011;38614;43.472;23.936;2022-07-06T03:18:42;8.65;;;6.40;;
41829;SDS011;38614;43.472;23.936;2022-07-06T03:21:30;8.23;;;5.90;;
41829;SDS011;38614;43.472;23.936;2022-07-06T03:24:18;12.30;;;6.95;;
41829;SDS011;38614;43.472;23.936;2022-07-06T03:27:06;17.92;;;6.18;;
41829;SDS011;38614;43.472;23.936;2022-07-06T03:29:55;11.38;;;7.05;;
41829;SDS011;38614;43.472;23.936;2022-07-06T03:32:42;7.25;;;5.70;;
41829;SDS011;38614;43.472;23.936;2022-07-06T03:35:30;11.18;;;6.00;;
41829;SDS011;38614;43.472;23.936;2022-07-06T03:38:20;8.85;;;6.60;;
41829;SDS011;38614;43.472;23.936;2022-07-06T03:41:08;13.35;;;7.43;;
41829;SDS011;38614;43.472;23.936;2022-07-06T03:43:56;11.32;;;6.45;;
41829;SDS011;38614;43.472;23.936;2022-07-06T03:46:44;10.00;;;5.85;;
41829;SDS011;38614;43.472;23.936;2022-07-06T03:49:32;27.77;;;6.78;;
41829;SDS011;38614;43.472;23.936;2022-07-06T03:52:22;16.90;;;7.25;;
41829;SDS011;38614;43.472;23.936;2022-07-06T03:55:14;21.60;;;7.38;;
41829;SDS011;38614;43.472;23.936;2022-07-06T03:58:07;13.93;;;7.57;;
41829;SDS011;38614;43.472;23.936;2022-07-06T04:00:58;14.15;;;8.02;;
41829;SDS011;38614;43.472;23.936;2022-07-06T04:03:45;31.35;;;8.35;;
41829;SDS011;38614;43.472;23.936;2022-07-06T04:06:33;9.95;;;7.55;;
41829;SDS011;38614;43.472;23.936;2022-07-06T04:09:25;26.55;;;8.30;;
41829;SDS011;38614;43.472;23.936;2022-07-06T04:12:13;11.50;;;7.20;;
41829;SDS011;38614;43.472;23.936;2022-07-06T04:15:03;12.68;;;7.20;;
41829;SDS011;38614;43.472;23.936;2022-07-06T04:17:51;8.90;;;6.50;;
41829;SDS011;38614;43.472;23.936;2022-07-06T04:20:43;9.68;;;6.93;;
41829;SDS011;38614;43.472;23.936;2022-07-06T04:23:32;9.50;;;6.70;;
41829;SDS011;38614;43.472;23.936;2022-07-06T04:26:21;12.20;;;8.15;;
41829;SDS011;38614;43.472;23.936;2022-07-06T04:29:18;12.95;;;8.07;;
41829;SDS011;38614;43.472;23.936;2022-07-06T04:32:06;18.20;;;8.52;;
41829;SDS011;38614;43.472;23.936;2022-07-06T04:34:57;12.60;;;7.50;;
41829;SDS011;38614;43.472;23.936;2022-07-06T04:37:45;14.13;;;7.32;;
41829;SDS011;38614;43.472;23.936;2022-07-06T04:40:35;11.35;;;7.28;;
41829;SDS011;38614;43.472;23.936;2022-07-06T04:43:30;10.73;;;6.85;;
41829;SDS011;38614;43.472;23.936;2022-07-06T04:46:18;8.48;;;7.13;;
41829;SDS011;38614;43.472;23.936;2022-07-06T04:49:09;13.60;;;7.55;;
41829;SDS011;38614;43.472;23.936;2022-07-06T04:52:01;16.98;;;9.23;;
41829;SDS011;38614;43.472;23.936;2022-07-06T04:54:58;13.50;;;8.45;;
41829;SDS011;38614;43.472;23.936;2022-07-06T04:57:48;26.40;;;9.35;;
41829;SDS011;38614;43.472;23.936;2022-07-06T05:00:37;11.07;;;7.82;;
41829;SDS011;38614;43.472;23.936;2022-07-06T05:03:26;12.15;;;8.60;;
41829;SDS011;38614;43.472;23.936;2022-07-06T05:06:14;13.18;;;8.23;;
41829;SDS011;38614;43.472;23.936;2022-07-06T05:09:02;14.52;;;8.95;;
41829;SDS011;38614;43.472;23.936;2022-07-06T05:11:51;14.48;;;7.43;;
41829;SDS011;38614;43.472;23.936;2022-07-06T05:14:39;10.45;;;7.97;;
41829;SDS011;38614;43.472;23.936;2022-07-06T05:17:28;10.07;;;7.20;;
41829;SDS011;38614;43.472;23.936;2022-07-06T05:20:20;7.55;;;6.72;;
41829;SDS011;38614;43.472;23.936;2022-07-06T05:23:08;8.50;;;6.40;;
41829;SDS011;38614;43.472;23.936;2022-07-06T05:25:56;9.25;;;6.28;;
41829;SDS011;38614;43.472;23.936;2022-07-06T05:28:45;8.10;;;6.22;;
41829;SDS011;38614;43.472;23.936;2022-07-06T05:31:39;10.40;;;7.07;;
41829;SDS011;38614;43.472;23.936;2022-07-06T05:34:29;15.35;;;6.35;;
41829;SDS011;38614;43.472;23.936;2022-07-06T05:37:17;9.30;;;6.53;;
41829;SDS011;38614;43.472;23.936;2022-07-06T05:40:08;7.33;;;6.17;;
41829;SDS011;38614;43.472;23.936;2022-07-06T05:42:57;8.77;;;6.85;;
41829;SDS011;38614;43.472;23.936;2022-07-06T05:45:44;14.25;;;7.13;;
41829;SDS011;38614;43.472;23.936;2022-07-06T05:48:33;8.88;;;5.43;;
41829;SDS011;38614;43.472;23.936;2022-07-06T05:51:39;12.13;;;5.55;;
41829;SDS011;38614;43.472;23.936;2022-07-06T05:54:27;8.32;;;5.47;;
41829;SDS011;38614;43.472;23.936;2022-07-06T05:57:15;10.60;;;5.43;;
41829;SDS011;38614;43.472;23.936;2022-07-06T06:00:06;7.45;;;5.60;;
41829;SDS011;38614;43.472;23.936;2022-07-06T06:03:01;15.32;;;4.80;;
41829;SDS011;38614;43.472;23.936;2022-07-06T06:05:50;6.00;;;3.53;;
41829;SDS011;38614;43.472;23.936;2022-07-06T06:08:39;6.82;;;3.70;;
41829;SDS011;38614;43.472;23.936;2022-07-06T06:11:28;7.95;;;3.63;;
41829;SDS011;38614;43.472;23.936;2022-07-06T06:14:18;9.05;;;4.60;;
41829;SDS011;38614;43.472;23.936;2022-07-06T06:17:05;8.75;;;3.72;;
41829;SDS011;38614;43.472;23.936;2022-07-06T06:19:56;8.60;;;3.15;;
41829;SDS011;38614;43.472;23.936;2022-07-06T06:25:41;3.05;;;2.83;;
41829;SDS011;38614;43.472;23.936;2022-07-06T06:28:29;6.18;;;3.17;;
41829;SDS011;38614;43.472;23.936;2022-07-06T06:31:16;7.15;;;2.88;;
41829;SDS011;38614;43.472;23.936;2022-07-06T06:34:04;7.28;;;2.85;;
41829;SDS011;38614;43.472;23.936;2022-07-06T06:36:52;4.63;;;2.38;;
41829;SDS011;38614;43.472;23.936;2022-07-06T06:39:40;6.53;;;2.70;;
41829;SDS011;38614;43.472;23.936;2022-07-06T06:42:27;5.85;;;3.15;;
41829;SDS011;38614;43.472;23.936;2022-07-06T06:45:17;6.13;;;2.63;;
41829;SDS011;38614;43.472;23.936;2022-07-06T06:48:04;10.13;;;2.70;;
41829;SDS011;38614;43.472;23.936;2022-07-06T06:50:55;7.30;;;2.78;;
41829;SDS011;38614;43.472;23.936;2022-07-06T06:53:42;3.13;;;2.45;;
41829;SDS011;38614;43.472;23.936;2022-07-06T06:56:30;6.30;;;2.72;;
41829;SDS011;38614;43.472;23.936;2022-07-06T06:59:17;8.57;;;2.95;;
41829;SDS011;38614;43.472;23.936;2022-07-06T07:02:05;5.32;;;1.90;;
41829;SDS011;38614;43.472;23.936;2022-07-06T07:04:53;1.98;;;1.83;;
41829;SDS011;38614;43.472;23.936;2022-07-06T07:07:41;5.55;;;1.90;;
41829;SDS011;38614;43.472;23.936;2022-07-06T07:10:32;3.58;;;2.67;;
41829;SDS011;38614;43.472;23.936;2022-07-06T07:13:20;6.43;;;4.00;;
41829;SDS011;38614;43.472;23.936;2022-07-06T07:16:13;9.57;;;3.83;;
41829;SDS011;38614;43.472;23.936;2022-07-06T07:19:01;5.28;;;3.97;;
41829;SDS011;38614;43.472;23.936;2022-07-06T07:21:57;8.25;;;3.97;;
41829;SDS011;38614;43.472;23.936;2022-07-06T07:25:02;4.80;;;4.40;;
41829;SDS011;38614;43.472;23.936;2022-07-06T07:27:50;12.25;;;4.82;;
41829;SDS011;38614;43.472;23.936;2022-07-06T07:30:39;4.40;;;4.00;;
41829;SDS011;38614;43.472;23.936;2022-07-06T07:33:30;7.72;;;4.65;;
41829;SDS011;38614;43.472;23.936;2022-07-06T07:36:18;15.70;;;4.97;;
41829;SDS011;38614;43.472;23.936;2022-07-06T07:39:05;5.57;;;5.00;;
41829;SDS011;38614;43.472;23.936;2022-07-06T07:41:53;5.35;;;4.60;;
41829;SDS011;38614;43.472;23.936;2022-07-06T07:44:41;5.50;;;5.00;;
41829;SDS011;38614;43.472;23.936;2022-07-06T07:47:29;9.07;;;4.68;;
41829;SDS011;38614;43.472;23.936;2022-07-06T07:50:16;7.97;;;4.35;;
41829;SDS011;38614;43.472;23.936;2022-07-06T07:53:05;6.72;;;3.92;;
41829;SDS011;38614;43.472;23.936;2022-07-06T07:55:56;6.88;;;4.43;;
41829;SDS011;38614;43.472;23.936;2022-07-06T07:58:43;8.73;;;4.80;;
41829;SDS011;38614;43.472;23.936;2022-07-06T08:01:35;9.57;;;4.95;;
41829;SDS011;38614;43.472;23.936;2022-07-06T08:04:23;8.15;;;4.70;;
41829;SDS011;38614;43.472;23.936;2022-07-06T08:07:11;5.80;;;5.03;;
41829;SDS011;38614;43.472;23.936;2022-07-06T08:10:00;10.40;;;4.50;;
41829;SDS011;38614;43.472;23.936;2022-07-06T08:12:48;5.95;;;4.20;;
41829;SDS011;38614;43.472;23.936;2022-07-06T08:15:40;5.38;;;4.22;;
41829;SDS011;38614;43.472;23.936;2022-07-06T08:18:29;9.68;;;3.72;;
41829;SDS011;38614;43.472;23.936;2022-07-06T08:21:18;6.93;;;4.32;;
41829;SDS011;38614;43.472;23.936;2022-07-06T08:24:11;5.00;;;2.80;;
41829;SDS011;38614;43.472;23.936;2022-07-06T08:26:59;4.35;;;3.60;;
41829;SDS011;38614;43.472;23.936;2022-07-06T08:29:46;4.45;;;3.30;;
41829;SDS011;38614;43.472;23.936;2022-07-06T08:32:41;8.18;;;3.90;;
41829;SDS011;38614;43.472;23.936;2022-07-06T08:35:50;4.18;;;3.88;;
41829;SDS011;38614;43.472;23.936;2022-07-06T08:38:38;7.50;;;4.60;;
41829;SDS011;38614;43.472;23.936;2022-07-06T08:41:26;4.97;;;4.15;;
41829;SDS011;38614;43.472;23.936;2022-07-06T08:44:19;5.38;;;4.30;;
41829;SDS011;38614;43.472;23.936;2022-07-06T08:47:07;4.05;;;3.63;;
41829;SDS011;38614;43.472;23.936;2022-07-06T08:50:00;4.38;;;3.70;;
41829;SDS011;38614;43.472;23.936;2022-07-06T08:52:49;3.92;;;3.63;;
41829;SDS011;38614;43.472;23.936;2022-07-06T08:55:38;4.10;;;3.80;;
41829;SDS011;38614;43.472;23.936;2022-07-06T08:58:27;6.38;;;3.88;;
41829;SDS011;38614;43.472;23.936;2022-07-06T09:01:18;6.18;;;3.63;;
41829;SDS011;38614;43.472;23.936;2022-07-06T09:04:06;8.15;;;3.95;;
41829;SDS011;38614;43.472;23.936;2022-07-06T09:06:58;6.38;;;2.90;;
41829;SDS011;38614;43.472;23.936;2022-07-06T09:09:46;4.57;;;4.25;;
41829;SDS011;38614;43.472;23.936;2022-07-06T09:12:35;7.68;;;4.45;;
41829;SDS011;38614;43.472;23.936;2022-07-06T09:15:28;5.15;;;4.57;;
41829;SDS011;38614;43.472;23.936;2022-07-06T09:18:23;4.00;;;3.70;;
41829;SDS011;38614;43.472;23.936;2022-07-06T09:21:11;5.05;;;4.25;;
41829;SDS011;38614;43.472;23.936;2022-07-06T09:24:00;5.20;;;4.28;;
41829;SDS011;38614;43.472;23.936;2022-07-06T09:26:55;7.70;;;3.50;;
41829;SDS011;38614;43.472;23.936;2022-07-06T09:29:45;4.40;;;3.97;;
41829;SDS011;38614;43.472;23.936;2022-07-06T09:32:42;6.13;;;4.53;;
41829;SDS011;38614;43.472;23.936;2022-07-06T09:35:36;8.32;;;4.40;;
41829;SDS011;38614;43.472;23.936;2022-07-06T09:38:25;4.65;;;4.25;;
41829;SDS011;38614;43.472;23.936;2022-07-06T09:41:14;11.00;;;3.78;;
41829;SDS011;38614;43.472;23.936;2022-07-06T09:44:24;4.88;;;4.30;;
41829;SDS011;38614;43.472;23.936;2022-07-06T09:47:17;7.30;;;3.90;;
41829;SDS011;38614;43.472;23.936;2022-07-06T09:50:05;5.75;;;4.53;;
41829;SDS011;38614;43.472;23.936;2022-07-06T09:52:54;4.47;;;4.07;;
41829;SDS011;38614;43.472;23.936;2022-07-06T09:55:43;13.98;;;4.75;;
41829;SDS011;38614;43.472;23.936;2022-07-06T09:58:37;5.57;;;3.92;;
41829;SDS011;38614;43.472;23.936;2022-07-06T10:01:47;3.67;;;3.30;;
41829;SDS011;38614;43.472;23.936;2022-07-06T10:04:37;5.43;;;3.55;;
41829;SDS011;38614;43.472;23.936;2022-07-06T10:07:31;7.13;;;4.40;;
41829;SDS011;38614;43.472;23.936;2022-07-06T10:10:19;3.95;;;3.55;;
41829;SDS011;38614;43.472;23.936;2022-07-06T10:13:07;9.25;;;3.60;;
41829;SDS011;38614;43.472;23.936;2022-07-06T10:15:56;7.22;;;4.20;;
41829;SDS011;38614;43.472;23.936;2022-07-06T10:18:45;6.00;;;4.05;;
41829;SDS011;38614;43.472;23.936;2022-07-06T10:21:39;3.33;;;3.13;;
41829;SDS011;38614;43.472;23.936;2022-07-06T10:24:28;4.15;;;3.75;;
41829;SDS011;38614;43.472;23.936;2022-07-06T10:27:17;10.45;;;3.75;;
41829;SDS011;38614;43.472;23.936;2022-07-06T10:30:05;4.40;;;4.00;;
41829;SDS011;38614;43.472;23.936;2022-07-06T10:32:54;9.43;;;3.70;;
41829;SDS011;38614;43.472;23.936;2022-07-06T10:35:43;4.57;;;3.20;;
41829;SDS011;38614;43.472;23.936;2022-07-06T10:38:35;4.32;;;3.00;;
41829;SDS011;38614;43.472;23.936;2022-07-06T10:41:32;5.40;;;3.10;;
41829;SDS011;38614;43.472;23.936;2022-07-06T10:44:23;6.30;;;3.17;;
41829;SDS011;38614;43.472;23.936;2022-07-06T10:47:12;6.80;;;3.03;;
41829;SDS011;38614;43.472;23.936;2022-07-06T10:50:00;2.90;;;2.70;;
41829;SDS011;38614;43.472;23.936;2022-07-06T10:52:49;3.42;;;3.05;;
41829;SDS011;38614;43.472;23.936;2022-07-06T10:55:39;4.88;;;3.10;;
41829;SDS011;38614;43.472;23.936;2022-07-06T10:58:40;3.10;;;2.90;;
41829;SDS011;38614;43.472;23.936;2022-07-06T11:01:28;4.05;;;2.92;;
41829;SDS011;38614;43.472;23.936;2022-07-06T11:04:19;5.00;;;2.97;;
41829;SDS011;38614;43.472;23.936;2022-07-06T11:07:19;6.53;;;4.18;;
41829;SDS011;38614;43.472;23.936;2022-07-06T11:10:07;4.47;;;4.07;;
41829;SDS011;38614;43.472;23.936;2022-07-06T11:12:59;6.13;;;3.53;;
41829;SDS011;38614;43.472;23.936;2022-07-06T11:16:02;3.95;;;3.53;;
41829;SDS011;38614;43.472;23.936;2022-07-06T11:19:00;5.05;;;4.00;;
41829;SDS011;38614;43.472;23.936;2022-07-06T11:22:05;8.85;;;3.63;;
41829;SDS011;38614;43.472;23.936;2022-07-06T11:24:55;6.03;;;3.70;;
41829;SDS011;38614;43.472;23.936;2022-07-06T11:27:43;22.33;;;5.25;;
41829;SDS011;38614;43.472;23.936;2022-07-06T11:30:33;5.38;;;3.90;;
41829;SDS011;38614;43.472;23.936;2022-07-06T11:33:31;3.50;;;3.20;;
41829;SDS011;38614;43.472;23.936;2022-07-06T11:36:20;2.97;;;2.67;;
41829;SDS011;38614;43.472;23.936;2022-07-06T11:39:09;3.97;;;2.90;;
41829;SDS011;38614;43.472;23.936;2022-07-06T11:41:57;5.72;;;2.90;;
41829;SDS011;38614;43.472;23.936;2022-07-06T11:44:48;2.70;;;2.50;;
41829;SDS011;38614;43.472;23.936;2022-07-06T11:47:38;2.25;;;2.05;;
41829;SDS011;38614;43.472;23.936;2022-07-06T11:50:26;6.05;;;1.50;;
41829;SDS011;38614;43.472;23.936;2022-07-06T11:53:14;6.65;;;1.67;;
41829;SDS011;38614;43.472;23.936;2022-07-06T11:56:02;6.55;;;1.85;;
41829;SDS011;38614;43.472;23.936;2022-07-06T11:58:51;2.95;;;2.33;;
41829;SDS011;38614;43.472;23.936;2022-07-06T12:01:42;2.10;;;2.00;;
41829;SDS011;38614;43.472;23.936;2022-07-06T12:04:37;2.05;;;1.95;;
41829;SDS011;38614;43.472;23.936;2022-07-06T12:07:27;2.28;;;2.13;;
41829;SDS011;38614;43.472;23.936;2022-07-06T12:10:30;3.42;;;2.67;;
41829;SDS011;38614;43.472;23.936;2022-07-06T12:13:25;4.63;;;2.78;;
41829;SDS011;38614;43.472;23.936;2022-07-06T12:16:14;3.72;;;2.50;;
41829;SDS011;38614;43.472;23.936;2022-07-06T12:19:05;2.75;;;2.55;;
41829;SDS011;38614;43.472;23.936;2022-07-06T12:21:57;3.75;;;1.83;;
41829;SDS011;38614;43.472;23.936;2022-07-06T12:24:45;7.43;;;1.10;;
41829;SDS011;38614;43.472;23.936;2022-07-06T12:27:34;1.23;;;1.13;;
41829;SDS011;38614;43.472;23.936;2022-07-06T12:30:22;3.53;;;1.75;;
41829;SDS011;38614;43.472;23.936;2022-07-06T12:33:14;1.60;;;1.50;;
41829;SDS011;38614;43.472;23.936;2022-07-06T12:36:09;3.08;;;1.48;;
41829;SDS011;38614;43.472;23.936;2022-07-06T12:39:09;1.27;;;1.17;;
41829;SDS011;38614;43.472;23.936;2022-07-06T12:42:03;1.75;;;1.65;;
41829;SDS011;38614;43.472;23.936;2022-07-06T12:44:56;2.25;;;1.10;;
41829;SDS011;38614;43.472;23.936;2022-07-06T12:47:56;1.65;;;1.40;;
41829;SDS011;38614;43.472;23.936;2022-07-06T12:50:51;4.75;;;1.42;;
41829;SDS011;38614;43.472;23.936;2022-07-06T12:53:38;1.83;;;1.50;;
41829;SDS011;38614;43.472;23.936;2022-07-06T12:56:26;2.05;;;1.95;;
41829;SDS011;38614;43.472;23.936;2022-07-06T12:59:20;2.97;;;2.60;;
41829;SDS011;38614;43.472;23.936;2022-07-06T13:02:16;2.05;;;1.95;;
41829;SDS011;38614;43.472;23.936;2022-07-06T13:05:48;2.63;;;1.10;;
41829;SDS011;38614;43.472;23.936;2022-07-06T13:08:37;2.20;;;1.60;;
41829;SDS011;38614;43.472;23.936;2022-07-06T13:11:24;2.78;;;1.50;;
41829;SDS011;38614;43.472;23.936;2022-07-06T13:14:13;2.55;;;1.35;;
41829;SDS011;38614;43.472;23.936;2022-07-06T13:17:04;3.78;;;1.23;;
41829;SDS011;38614;43.472;23.936;2022-07-06T13:19:55;3.20;;;0.93;;
41829;SDS011;38614;43.472;23.936;2022-07-06T13:22:42;2.50;;;1.23;;
41829;SDS011;38614;43.472;23.936;2022-07-06T13:25:30;1.27;;;1.17;;
41829;SDS011;38614;43.472;23.936;2022-07-06T13:28:18;1.25;;;1.10;;
41829;SDS011;38614;43.472;23.936;2022-07-06T13:31:06;1.42;;;1.08;;
41829;SDS011;38614;43.472;23.936;2022-07-06T13:33:58;1.70;;;1.60;;
41829;SDS011;38614;43.472;23.936;2022-07-06T13:36:45;6.82;;;5.03;;
41829;SDS011;38614;43.472;23.936;2022-07-06T13:39:33;14.88;;;7.93;;
41829;SDS011;38614;43.472;23.936;2022-07-06T13:42:21;5.63;;;2.20;;
41829;SDS011;38614;43.472;23.936;2022-07-06T13:45:09;17.42;;;10.38;;
41829;SDS011;38614;43.472;23.936;2022-07-06T13:47:57;17.10;;;8.75;;
41829;SDS011;38614;43.472;23.936;2022-07-06T13:50:45;4.53;;;3.90;;
41829;SDS011;38614;43.472;23.936;2022-07-06T13:53:33;5.80;;;1.90;;
41829;SDS011;38614;43.472;23.936;2022-07-06T13:56:21;2.67;;;2.47;;
41829;SDS011;38614;43.472;23.936;2022-07-06T13:59:09;1.92;;;1.83;;
41829;SDS011;38614;43.472;23.936;2022-07-06T14:01:59;2.00;;;1.90;;
41829;SDS011;38614;43.472;23.936;2022-07-06T14:04:47;5.15;;;2.30;;
41829;SDS011;38614;43.472;23.936;2022-07-06T14:07:34;6.82;;;2.47;;
41829;SDS011;38614;43.472;23.936;2022-07-06T14:10:22;2.30;;;2.10;;
41829;SDS011;38614;43.472;23.936;2022-07-06T14:13:10;8.48;;;2.20;;
41829;SDS011;38614;43.472;23.936;2022-07-06T14:16:05;5.45;;;2.55;;
41829;SDS011;38614;43.472;23.936;2022-07-06T14:18:53;2.53;;;1.48;;
41829;SDS011;38614;43.472;23.936;2022-07-06T14:21:44;2.22;;;0.98;;
41829;SDS011;38614;43.472;23.936;2022-07-06T14:24:33;0.93;;;0.80;;
41829;SDS011;38614;43.472;23.936;2022-07-06T14:27:22;0.88;;;0.88;;
41829;SDS011;38614;43.472;23.936;2022-07-06T14:30:10;6.03;;;0.90;;
41829;SDS011;38614;43.472;23.936;2022-07-06T14:32:58;4.43;;;1.00;;
41829;SDS011;38614;43.472;23.936;2022-07-06T14:35:46;5.00;;;0.88;;
41829;SDS011;38614;43.472;23.936;2022-07-06T14:38:42;4.05;;;0.60;;
41829;SDS011;38614;43.472;23.936;2022-07-06T14:41:29;7.03;;;0.95;;
41829;SDS011;38614;43.472;23.936;2022-07-06T14:44:17;2.78;;;0.75;;
41829;SDS011;38614;43.472;23.936;2022-07-06T14:47:05;1.75;;;0.68;;
41829;SDS011;38614;43.472;23.936;2022-07-06T14:49:53;0.88;;;0.52;;
41829;SDS011;38614;43.472;23.936;2022-07-06T14:52:41;0.70;;;0.52;;
41829;SDS011;38614;43.472;23.936;2022-07-06T14:55:29;2.72;;;0.80;;
41829;SDS011;38614;43.472;23.936;2022-07-06T14:58:16;1.13;;;0.73;;
41829;SDS011;38614;43.472;23.936;2022-07-06T15:01:05;2.40;;;0.40;;
41829;SDS011;38614;43.472;23.936;2022-07-06T15:03:54;0.93;;;0.68;;
41829;SDS011;38614;43.472;23.936;2022-07-06T15:06:45;0.82;;;0.70;;
41829;SDS011;38614;43.472;23.936;2022-07-06T15:09:44;1.33;;;0.50;;
41829;SDS011;38614;43.472;23.936;2022-07-06T15:12:32;0.25;;;0.25;;
41829;SDS011;38614;43.472;23.936;2022-07-06T15:15:20;0.82;;;0.50;;
41829;SDS011;38614;43.472;23.936;2022-07-06T15:18:29;2.63;;;0.43;;
41829;SDS011;38614;43.472;23.936;2022-07-06T15:21:19;1.98;;;0.17;;
41829;SDS011;38614;43.472;23.936;2022-07-06T15:24:09;5.88;;;0.40;;
41829;SDS011;38614;43.472;23.936;2022-07-06T15:26:57;2.30;;;0.17;;
41829;SDS011;38614;43.472;23.936;2022-07-06T15:29:45;0.30;;;0.20;;
41829;SDS011;38614;43.472;23.936;2022-07-06T15:32:35;3.53;;;0.20;;
41829;SDS011;38614;43.472;23.936;2022-07-06T15:35:25;0.28;;;0.10;;
41829;SDS011;38614;43.472;23.936;2022-07-06T15:38:13;0.50;;;0.40;;
41829;SDS011;38614;43.472;23.936;2022-07-06T15:41:01;2.40;;;0.30;;
41829;SDS011;38614;43.472;23.936;2022-07-06T15:43:50;2.40;;;0.50;;
41829;SDS011;38614;43.472;23.936;2022-07-06T15:46:41;1.92;;;0.35;;
41829;SDS011;38614;43.472;23.936;2022-07-06T15:49:29;3.25;;;0.45;;
41829;SDS011;38614;43.472;23.936;2022-07-06T15:52:21;0.50;;;0.50;;
41829;SDS011;38614;43.472;23.936;2022-07-06T15:55:09;0.40;;;0.20;;
41829;SDS011;38614;43.472;23.936;2022-07-06T15:58:00;0.55;;;0.43;;
41829;SDS011;38614;43.472;23.936;2022-07-06T16:00:47;0.47;;;0.47;;
41829;SDS011;38614;43.472;23.936;2022-07-06T16:03:35;0.40;;;0.30;;
41829;SDS011;38614;43.472;23.936;2022-07-06T16:06:29;0.85;;;0.30;;
41829;SDS011;38614;43.472;23.936;2022-07-06T16:09:24;1.75;;;0.68;;
41829;SDS011;38614;43.472;23.936;2022-07-06T16:12:11;2.60;;;0.10;;
41829;SDS011;38614;43.472;23.936;2022-07-06T16:15:02;1.27;;;0.28;;
41829;SDS011;38614;43.472;23.936;2022-07-06T16:17:53;4.32;;;0.20;;
41829;SDS011;38614;43.472;23.936;2022-07-06T16:20:45;0.30;;;0.10;;
41829;SDS011;38614;43.472;23.936;2022-07-06T16:23:33;1.15;;;0.38;;
41829;SDS011;38614;43.472;23.936;2022-07-06T16:26:23;0.63;;;0.40;;
41829;SDS011;38614;43.472;23.936;2022-07-06T16:29:13;1.10;;;1.00;;
41829;SDS011;38614;43.472;23.936;2022-07-06T16:32:01;2.53;;;2.25;;
41829;SDS011;38614;43.472;23.936;2022-07-06T16:34:49;2.55;;;2.10;;
41829;SDS011;38614;43.472;23.936;2022-07-06T16:37:42;1.67;;;1.58;;
41829;SDS011;38614;43.472;23.936;2022-07-06T16:40:30;2.28;;;2.08;;
41829;SDS011;38614;43.472;23.936;2022-07-06T16:43:27;3.85;;;2.60;;
41829;SDS011;38614;43.472;23.936;2022-07-06T16:46:15;3.28;;;3.08;;
41829;SDS011;38614;43.472;23.936;2022-07-06T16:49:03;3.70;;;3.30;;
41829;SDS011;38614;43.472;23.936;2022-07-06T16:51:59;4.05;;;3.75;;